sensor_id;sensor_type;location;lat;lon;timestamp;P1;durP1;ratioP1;P2;durP2;ratioP2
13975;SDS011;7062;49.792;9.946;2023-03-05T00:01:11;20.67;;;13.65;;
13975;SDS011;7062;49.792;9.946;2023-03-05T00:03:38;22.70;;;14.07;;
13975;SDS011;7062;49.792;9.946;2023-03-05T00:06:05;25.83;;;14.70;;
13975;SDS011;7062;49.792;9.946;2023-03-05T00:08:31;26.95;;;14.57;;
13975;SDS011;7062;49.792;9.946;2023-03-05T00:13:23;22.77;;;15.23;;
13975;SDS011;7062;49.792;9.946;2023-03-05T00:15:49;22.77;;;14.87;;
13975;SDS011;7062;49.792;9.946;2023-03-05T00:18:15;25.80;;;13.73;;
13975;SDS011;7062;49.792;9.946;2023-03-05T00:20:40;28.30;;;15.63;;
13975;SDS011;7062;49.792;9.946;2023-03-05T00:23:06;24.20;;;14.73;;
13975;SDS011;7062;49.792;9.946;2023-03-05T00:25:33;29.73;;;13.90;;
13975;SDS011;7062;49.792;9.946;2023-03-05T00:28:03;20.60;;;14.63;;
13975;SDS011;7062;49.792;9.946;2023-03-05T00:30:29;23.77;;;14.45;;
13975;SDS011;7062;49.792;9.946;2023-03-05T00:32:56;26.88;;;14.25;;
13975;SDS011;7062;49.792;9.946;2023-03-05T00:35:22;23.17;;;13.70;;
13975;SDS011;7062;49.792;9.946;2023-03-05T00:37:47;22.03;;;14.40;;
13975;SDS011;7062;49.792;9.946;2023-03-05T00:40:13;21.40;;;14.97;;
13975;SDS011;7062;49.792;9.946;2023-03-05T00:42:39;20.80;;;13.73;;
13975;SDS011;7062;49.792;9.946;2023-03-05T00:45:05;20.50;;;14.10;;
13975;SDS011;7062;49.792;9.946;2023-03-05T00:47:32;21.73;;;13.60;;
13975;SDS011;7062;49.792;9.946;2023-03-05T00:49:57;20.10;;;14.27;;
13975;SDS011;7062;49.792;9.946;2023-03-05T00:52:23;22.60;;;13.80;;
13975;SDS011;7062;49.792;9.946;2023-03-05T00:54:49;21.40;;;14.30;;
13975;SDS011;7062;49.792;9.946;2023-03-05T00:57:15;25.97;;;14.67;;
13975;SDS011;7062;49.792;9.946;2023-03-05T00:59:40;19.73;;;14.23;;
13975;SDS011;7062;49.792;9.946;2023-03-05T01:02:06;19.47;;;13.90;;
13975;SDS011;7062;49.792;9.946;2023-03-05T01:04:32;27.70;;;15.63;;
13975;SDS011;7062;49.792;9.946;2023-03-05T01:06:58;23.80;;;15.43;;
13975;SDS011;7062;49.792;9.946;2023-03-05T01:09:23;22.83;;;14.40;;
13975;SDS011;7062;49.792;9.946;2023-03-05T01:11:50;19.73;;;12.33;;
13975;SDS011;7062;49.792;9.946;2023-03-05T01:14:16;20.45;;;13.38;;
13975;SDS011;7062;49.792;9.946;2023-03-05T01:16:42;25.77;;;16.20;;
13975;SDS011;7062;49.792;9.946;2023-03-05T01:19:07;23.77;;;14.43;;
13975;SDS011;7062;49.792;9.946;2023-03-05T01:21:34;18.50;;;13.90;;
13975;SDS011;7062;49.792;9.946;2023-03-05T01:24:00;18.65;;;15.52;;
13975;SDS011;7062;49.792;9.946;2023-03-05T01:26:26;22.33;;;14.17;;
13975;SDS011;7062;49.792;9.946;2023-03-05T01:28:52;20.73;;;14.50;;
13975;SDS011;7062;49.792;9.946;2023-03-05T01:31:18;24.77;;;14.57;;
13975;SDS011;7062;49.792;9.946;2023-03-05T01:33:44;22.57;;;14.47;;
13975;SDS011;7062;49.792;9.946;2023-03-05T01:36:10;27.50;;;17.40;;
13975;SDS011;7062;49.792;9.946;2023-03-05T01:38:40;27.02;;;16.70;;
13975;SDS011;7062;49.792;9.946;2023-03-05T01:41:07;22.15;;;16.73;;
13975;SDS011;7062;49.792;9.946;2023-03-05T01:43:33;31.73;;;18.55;;
13975;SDS011;7062;49.792;9.946;2023-03-05T01:51:35;28.02;;;18.45;;
13975;SDS011;7062;49.792;9.946;2023-03-05T01:54:04;24.73;;;17.25;;
13975;SDS011;7062;49.792;9.946;2023-03-05T01:56:32;25.35;;;17.90;;
13975;SDS011;7062;49.792;9.946;2023-03-05T01:58:58;26.70;;;19.40;;
13975;SDS011;7062;49.792;9.946;2023-03-05T02:01:29;25.95;;;18.17;;
13975;SDS011;7062;49.792;9.946;2023-03-05T02:04:01;30.13;;;19.80;;
13975;SDS011;7062;49.792;9.946;2023-03-05T02:06:27;26.90;;;18.97;;
13975;SDS011;7062;49.792;9.946;2023-03-05T02:08:53;26.00;;;16.80;;
13975;SDS011;7062;49.792;9.946;2023-03-05T02:11:18;24.33;;;16.10;;
13975;SDS011;7062;49.792;9.946;2023-03-05T02:13:45;23.63;;;16.05;;
13975;SDS011;7062;49.792;9.946;2023-03-05T02:16:10;24.77;;;16.53;;
13975;SDS011;7062;49.792;9.946;2023-03-05T02:18:36;20.50;;;15.30;;
13975;SDS011;7062;49.792;9.946;2023-03-05T02:21:06;21.87;;;16.30;;
13975;SDS011;7062;49.792;9.946;2023-03-05T02:23:33;24.50;;;16.33;;
13975;SDS011;7062;49.792;9.946;2023-03-05T02:26:00;21.05;;;15.52;;
13975;SDS011;7062;49.792;9.946;2023-03-05T02:30:53;24.03;;;14.80;;
13975;SDS011;7062;49.792;9.946;2023-03-05T02:33:19;19.67;;;13.57;;
13975;SDS011;7062;49.792;9.946;2023-03-05T02:35:45;21.50;;;13.87;;
13975;SDS011;7062;49.792;9.946;2023-03-05T02:38:11;17.97;;;12.50;;
13975;SDS011;7062;49.792;9.946;2023-03-05T02:40:38;16.73;;;10.85;;
13975;SDS011;7062;49.792;9.946;2023-03-05T02:43:04;14.97;;;11.07;;
13975;SDS011;7062;49.792;9.946;2023-03-05T02:45:31;12.40;;;10.70;;
13975;SDS011;7062;49.792;9.946;2023-03-05T02:47:57;15.57;;;10.10;;
13975;SDS011;7062;49.792;9.946;2023-03-05T02:50:22;14.83;;;9.93;;
13975;SDS011;7062;49.792;9.946;2023-03-05T02:52:48;12.35;;;9.10;;
13975;SDS011;7062;49.792;9.946;2023-03-05T02:55:14;11.97;;;8.23;;
13975;SDS011;7062;49.792;9.946;2023-03-05T02:57:39;17.97;;;8.57;;
13975;SDS011;7062;49.792;9.946;2023-03-05T03:00:05;13.47;;;8.77;;
13975;SDS011;7062;49.792;9.946;2023-03-05T03:02:31;11.55;;;7.97;;
13975;SDS011;7062;49.792;9.946;2023-03-05T03:04:57;11.60;;;7.20;;
13975;SDS011;7062;49.792;9.946;2023-03-05T03:07:23;13.50;;;7.67;;
13975;SDS011;7062;49.792;9.946;2023-03-05T03:09:48;9.70;;;7.23;;
13975;SDS011;7062;49.792;9.946;2023-03-05T03:12:14;14.57;;;8.20;;
13975;SDS011;7062;49.792;9.946;2023-03-05T03:14:40;8.93;;;6.37;;
13975;SDS011;7062;49.792;9.946;2023-03-05T03:17:08;15.07;;;7.55;;
13975;SDS011;7062;49.792;9.946;2023-03-05T03:19:36;8.30;;;6.15;;
13975;SDS011;7062;49.792;9.946;2023-03-05T03:22:02;9.18;;;7.50;;
13975;SDS011;7062;49.792;9.946;2023-03-05T03:24:29;8.57;;;6.00;;
13975;SDS011;7062;49.792;9.946;2023-03-05T03:26:55;13.45;;;6.25;;
13975;SDS011;7062;49.792;9.946;2023-03-05T03:29:21;13.27;;;7.33;;
13975;SDS011;7062;49.792;9.946;2023-03-05T03:31:47;7.67;;;5.77;;
13975;SDS011;7062;49.792;9.946;2023-03-05T03:34:13;12.63;;;6.13;;
13975;SDS011;7062;49.792;9.946;2023-03-05T03:36:40;13.93;;;6.85;;
13975;SDS011;7062;49.792;9.946;2023-03-05T03:39:09;9.98;;;6.35;;
13975;SDS011;7062;49.792;9.946;2023-03-05T03:41:36;8.15;;;6.15;;
13975;SDS011;7062;49.792;9.946;2023-03-05T03:44:05;7.95;;;5.68;;
13975;SDS011;7062;49.792;9.946;2023-03-05T03:46:32;8.73;;;5.93;;
13975;SDS011;7062;49.792;9.946;2023-03-05T03:48:59;10.93;;;7.25;;
13975;SDS011;7062;49.792;9.946;2023-03-05T03:51:25;9.05;;;6.70;;
13975;SDS011;7062;49.792;9.946;2023-03-05T03:53:50;8.47;;;5.43;;
13975;SDS011;7062;49.792;9.946;2023-03-05T03:56:16;12.90;;;7.37;;
13975;SDS011;7062;49.792;9.946;2023-03-05T03:58:41;12.87;;;6.87;;
13975;SDS011;7062;49.792;9.946;2023-03-05T04:01:07;11.73;;;5.23;;
13975;SDS011;7062;49.792;9.946;2023-03-05T04:03:33;10.83;;;5.47;;
13975;SDS011;7062;49.792;9.946;2023-03-05T04:05:58;11.90;;;6.73;;
13975;SDS011;7062;49.792;9.946;2023-03-05T04:08:24;12.83;;;6.27;;
13975;SDS011;7062;49.792;9.946;2023-03-05T04:10:50;9.10;;;6.03;;
13975;SDS011;7062;49.792;9.946;2023-03-05T04:13:15;8.70;;;6.00;;
13975;SDS011;7062;49.792;9.946;2023-03-05T04:15:41;8.40;;;5.70;;
13975;SDS011;7062;49.792;9.946;2023-03-05T04:18:07;9.10;;;5.87;;
13975;SDS011;7062;49.792;9.946;2023-03-05T04:20:33;6.97;;;5.75;;
13975;SDS011;7062;49.792;9.946;2023-03-05T04:22:59;10.23;;;6.00;;
13975;SDS011;7062;49.792;9.946;2023-03-05T04:25:25;9.03;;;6.00;;
13975;SDS011;7062;49.792;9.946;2023-03-05T04:27:50;10.53;;;5.57;;
13975;SDS011;7062;49.792;9.946;2023-03-05T04:30:16;8.37;;;5.80;;
13975;SDS011;7062;49.792;9.946;2023-03-05T04:32:42;11.53;;;6.90;;
13975;SDS011;7062;49.792;9.946;2023-03-05T04:35:07;7.87;;;5.90;;
13975;SDS011;7062;49.792;9.946;2023-03-05T04:37:33;8.63;;;5.95;;
13975;SDS011;7062;49.792;9.946;2023-03-05T04:39:59;8.60;;;5.77;;
13975;SDS011;7062;49.792;9.946;2023-03-05T04:42:25;10.40;;;6.07;;
13975;SDS011;7062;49.792;9.946;2023-03-05T04:44:50;10.17;;;5.53;;
13975;SDS011;7062;49.792;9.946;2023-03-05T04:47:16;9.37;;;5.00;;
13975;SDS011;7062;49.792;9.946;2023-03-05T04:49:42;10.48;;;5.65;;
13975;SDS011;7062;49.792;9.946;2023-03-05T04:52:09;12.37;;;6.87;;
13975;SDS011;7062;49.792;9.946;2023-03-05T04:54:36;9.13;;;6.40;;
13975;SDS011;7062;49.792;9.946;2023-03-05T04:57:01;8.20;;;5.47;;
13975;SDS011;7062;49.792;9.946;2023-03-05T04:59:27;8.97;;;5.70;;
13975;SDS011;7062;49.792;9.946;2023-03-05T05:01:53;9.83;;;6.27;;
13975;SDS011;7062;49.792;9.946;2023-03-05T05:04:19;10.27;;;6.63;;
13975;SDS011;7062;49.792;9.946;2023-03-05T05:06:45;12.03;;;6.00;;
13975;SDS011;7062;49.792;9.946;2023-03-05T05:09:10;9.57;;;5.40;;
13975;SDS011;7062;49.792;9.946;2023-03-05T05:11:36;10.53;;;5.73;;
13975;SDS011;7062;49.792;9.946;2023-03-05T05:14:02;10.07;;;5.63;;
13975;SDS011;7062;49.792;9.946;2023-03-05T05:16:28;9.63;;;6.00;;
13975;SDS011;7062;49.792;9.946;2023-03-05T05:18:53;8.13;;;5.80;;
13975;SDS011;7062;49.792;9.946;2023-03-05T05:21:19;13.10;;;5.80;;
13975;SDS011;7062;49.792;9.946;2023-03-05T05:23:45;10.53;;;5.60;;
13975;SDS011;7062;49.792;9.946;2023-03-05T05:26:11;7.77;;;5.37;;
13975;SDS011;7062;49.792;9.946;2023-03-05T05:28:40;8.10;;;5.53;;
13975;SDS011;7062;49.792;9.946;2023-03-05T05:31:08;9.77;;;5.85;;
13975;SDS011;7062;49.792;9.946;2023-03-05T05:33:35;9.23;;;5.55;;
13975;SDS011;7062;49.792;9.946;2023-03-05T05:36:02;7.13;;;5.33;;
13975;SDS011;7062;49.792;9.946;2023-03-05T05:38:28;9.20;;;6.03;;
13975;SDS011;7062;49.792;9.946;2023-03-05T05:40:54;11.50;;;6.33;;
13975;SDS011;7062;49.792;9.946;2023-03-05T05:43:25;16.08;;;6.85;;
13975;SDS011;7062;49.792;9.946;2023-03-05T05:45:50;11.07;;;6.37;;
13975;SDS011;7062;49.792;9.946;2023-03-05T05:48:16;9.83;;;6.03;;
13975;SDS011;7062;49.792;9.946;2023-03-05T05:50:41;9.47;;;5.70;;
13975;SDS011;7062;49.792;9.946;2023-03-05T05:53:07;8.93;;;5.97;;
13975;SDS011;7062;49.792;9.946;2023-03-05T05:55:33;9.37;;;5.50;;
13975;SDS011;7062;49.792;9.946;2023-03-05T05:57:58;9.10;;;5.27;;
13975;SDS011;7062;49.792;9.946;2023-03-05T06:00:24;9.03;;;5.87;;
13975;SDS011;7062;49.792;9.946;2023-03-05T06:02:49;8.60;;;5.33;;
13975;SDS011;7062;49.792;9.946;2023-03-05T06:05:15;10.70;;;5.43;;
13975;SDS011;7062;49.792;9.946;2023-03-05T06:07:41;10.17;;;6.07;;
13975;SDS011;7062;49.792;9.946;2023-03-05T06:10:08;8.07;;;5.10;;
13975;SDS011;7062;49.792;9.946;2023-03-05T06:12:34;8.75;;;5.20;;
13975;SDS011;7062;49.792;9.946;2023-03-05T06:14:59;8.93;;;5.97;;
13975;SDS011;7062;49.792;9.946;2023-03-05T06:17:26;10.87;;;5.87;;
13975;SDS011;7062;49.792;9.946;2023-03-05T06:19:53;10.13;;;5.88;;
13975;SDS011;7062;49.792;9.946;2023-03-05T06:22:19;9.73;;;5.53;;
13975;SDS011;7062;49.792;9.946;2023-03-05T06:24:45;7.10;;;5.23;;
13975;SDS011;7062;49.792;9.946;2023-03-05T06:27:10;10.93;;;4.90;;
13975;SDS011;7062;49.792;9.946;2023-03-05T06:29:36;8.93;;;5.03;;
13975;SDS011;7062;49.792;9.946;2023-03-05T06:32:01;6.90;;;5.10;;
13975;SDS011;7062;49.792;9.946;2023-03-05T06:34:28;8.30;;;4.68;;
13975;SDS011;7062;49.792;9.946;2023-03-05T06:36:54;11.87;;;5.70;;
13975;SDS011;7062;49.792;9.946;2023-03-05T06:39:19;11.10;;;4.63;;
13975;SDS011;7062;49.792;9.946;2023-03-05T06:41:45;9.43;;;4.97;;
13975;SDS011;7062;49.792;9.946;2023-03-05T06:44:10;8.80;;;4.67;;
13975;SDS011;7062;49.792;9.946;2023-03-05T06:46:37;8.80;;;4.37;;
13975;SDS011;7062;49.792;9.946;2023-03-05T06:49:03;5.82;;;4.55;;
13975;SDS011;7062;49.792;9.946;2023-03-05T06:51:30;8.80;;;4.10;;
13975;SDS011;7062;49.792;9.946;2023-03-05T06:54:05;5.72;;;4.05;;
13975;SDS011;7062;49.792;9.946;2023-03-05T06:56:35;11.38;;;4.40;;
13975;SDS011;7062;49.792;9.946;2023-03-05T06:59:02;8.98;;;4.63;;
13975;SDS011;7062;49.792;9.946;2023-03-05T07:01:28;9.82;;;4.53;;
13975;SDS011;7062;49.792;9.946;2023-03-05T07:03:54;7.47;;;3.80;;
13975;SDS011;7062;49.792;9.946;2023-03-05T07:06:23;6.32;;;3.35;;
13975;SDS011;7062;49.792;9.946;2023-03-05T07:08:53;7.63;;;3.22;;
13975;SDS011;7062;49.792;9.946;2023-03-05T07:11:22;8.63;;;2.90;;
13975;SDS011;7062;49.792;9.946;2023-03-05T07:13:49;5.18;;;2.22;;
13975;SDS011;7062;49.792;9.946;2023-03-05T07:16:19;5.65;;;3.50;;
13975;SDS011;7062;49.792;9.946;2023-03-05T07:18:47;6.53;;;2.58;;
13975;SDS011;7062;49.792;9.946;2023-03-05T07:21:16;4.40;;;2.63;;
13975;SDS011;7062;49.792;9.946;2023-03-05T07:23:44;6.43;;;2.53;;
13975;SDS011;7062;49.792;9.946;2023-03-05T07:26:10;3.45;;;2.00;;
13975;SDS011;7062;49.792;9.946;2023-03-05T07:28:36;3.05;;;1.60;;
13975;SDS011;7062;49.792;9.946;2023-03-05T07:31:11;5.47;;;1.83;;
13975;SDS011;7062;49.792;9.946;2023-03-05T07:33:44;3.90;;;2.13;;
13975;SDS011;7062;49.792;9.946;2023-03-05T07:36:10;3.88;;;2.03;;
13975;SDS011;7062;49.792;9.946;2023-03-05T07:38:36;6.88;;;1.80;;
13975;SDS011;7062;49.792;9.946;2023-03-05T07:41:03;4.70;;;2.00;;
13975;SDS011;7062;49.792;9.946;2023-03-05T07:43:31;6.18;;;1.90;;
13975;SDS011;7062;49.792;9.946;2023-03-05T07:45:56;5.40;;;2.07;;
13975;SDS011;7062;49.792;9.946;2023-03-05T07:48:22;4.83;;;2.43;;
13975;SDS011;7062;49.792;9.946;2023-03-05T07:50:48;5.90;;;1.90;;
13975;SDS011;7062;49.792;9.946;2023-03-05T07:53:14;5.00;;;2.05;;
13975;SDS011;7062;49.792;9.946;2023-03-05T07:55:41;3.23;;;2.20;;
13975;SDS011;7062;49.792;9.946;2023-03-05T07:58:10;6.05;;;1.75;;
13975;SDS011;7062;49.792;9.946;2023-03-05T08:00:37;3.75;;;1.70;;
13975;SDS011;7062;49.792;9.946;2023-03-05T08:03:03;4.88;;;2.03;;
13975;SDS011;7062;49.792;9.946;2023-03-05T08:05:29;6.93;;;1.47;;
13975;SDS011;7062;49.792;9.946;2023-03-05T08:07:54;5.13;;;1.73;;
13975;SDS011;7062;49.792;9.946;2023-03-05T08:10:20;8.20;;;1.93;;
13975;SDS011;7062;49.792;9.946;2023-03-05T08:12:46;5.60;;;1.70;;
13975;SDS011;7062;49.792;9.946;2023-03-05T08:15:11;5.10;;;1.60;;
13975;SDS011;7062;49.792;9.946;2023-03-05T08:17:37;3.63;;;1.87;;
13975;SDS011;7062;49.792;9.946;2023-03-05T08:20:02;2.33;;;1.10;;
13975;SDS011;7062;49.792;9.946;2023-03-05T08:22:32;2.65;;;1.58;;
13975;SDS011;7062;49.792;9.946;2023-03-05T08:24:58;9.40;;;1.95;;
13975;SDS011;7062;49.792;9.946;2023-03-05T08:27:24;4.47;;;1.60;;
13975;SDS011;7062;49.792;9.946;2023-03-05T08:29:50;2.70;;;1.73;;
13975;SDS011;7062;49.792;9.946;2023-03-05T08:32:16;7.10;;;2.00;;
13975;SDS011;7062;49.792;9.946;2023-03-05T08:34:42;7.20;;;1.20;;
13975;SDS011;7062;49.792;9.946;2023-03-05T08:37:07;2.63;;;1.50;;
13975;SDS011;7062;49.792;9.946;2023-03-05T08:39:34;4.00;;;1.67;;
13975;SDS011;7062;49.792;9.946;2023-03-05T08:42:00;2.03;;;0.98;;
13975;SDS011;7062;49.792;9.946;2023-03-05T08:44:26;3.40;;;1.13;;
13975;SDS011;7062;49.792;9.946;2023-03-05T08:46:51;3.00;;;1.30;;
13975;SDS011;7062;49.792;9.946;2023-03-05T08:49:17;1.70;;;0.80;;
13975;SDS011;7062;49.792;9.946;2023-03-05T08:51:42;2.53;;;1.10;;
13975;SDS011;7062;49.792;9.946;2023-03-05T08:54:08;3.90;;;1.67;;
13975;SDS011;7062;49.792;9.946;2023-03-05T08:56:34;3.08;;;1.30;;
13975;SDS011;7062;49.792;9.946;2023-03-05T08:59:01;3.22;;;1.17;;
13975;SDS011;7062;49.792;9.946;2023-03-05T09:01:27;9.27;;;1.40;;
13975;SDS011;7062;49.792;9.946;2023-03-05T09:03:54;3.13;;;1.10;;
13975;SDS011;7062;49.792;9.946;2023-03-05T09:06:20;5.50;;;1.35;;
13975;SDS011;7062;49.792;9.946;2023-03-05T09:08:46;1.43;;;1.27;;
13975;SDS011;7062;49.792;9.946;2023-03-05T09:11:12;3.27;;;1.47;;
13975;SDS011;7062;49.792;9.946;2023-03-05T09:13:38;3.03;;;1.77;;
13975;SDS011;7062;49.792;9.946;2023-03-05T09:16:05;2.40;;;0.75;;
13975;SDS011;7062;49.792;9.946;2023-03-05T09:18:32;5.18;;;1.90;;
13975;SDS011;7062;49.792;9.946;2023-03-05T09:21:03;3.95;;;1.02;;
13975;SDS011;7062;49.792;9.946;2023-03-05T09:23:34;4.00;;;1.63;;
13975;SDS011;7062;49.792;9.946;2023-03-05T09:25:59;3.37;;;1.20;;
13975;SDS011;7062;49.792;9.946;2023-03-05T09:28:25;3.53;;;1.20;;
13975;SDS011;7062;49.792;9.946;2023-03-05T09:30:51;2.27;;;1.30;;
13975;SDS011;7062;49.792;9.946;2023-03-05T09:33:16;3.57;;;1.20;;
13975;SDS011;7062;49.792;9.946;2023-03-05T09:35:42;3.37;;;1.50;;
13975;SDS011;7062;49.792;9.946;2023-03-05T09:38:08;5.77;;;1.57;;
13975;SDS011;7062;49.792;9.946;2023-03-05T09:40:41;2.10;;;0.80;;
13975;SDS011;7062;49.792;9.946;2023-03-05T09:43:18;2.20;;;0.77;;
13975;SDS011;7062;49.792;9.946;2023-03-05T09:45:56;1.88;;;0.82;;
13975;SDS011;7062;49.792;9.946;2023-03-05T09:48:41;4.40;;;0.80;;
13975;SDS011;7062;49.792;9.946;2023-03-05T09:51:25;2.40;;;1.05;;
13975;SDS011;7062;49.792;9.946;2023-03-05T09:54:05;2.67;;;1.05;;
13975;SDS011;7062;49.792;9.946;2023-03-05T09:56:48;1.58;;;0.98;;
13975;SDS011;7062;49.792;9.946;2023-03-05T10:01:52;3.28;;;1.00;;
13975;SDS011;7062;49.792;9.946;2023-03-05T10:04:37;3.85;;;1.42;;
13975;SDS011;7062;49.792;9.946;2023-03-05T10:09:59;2.00;;;0.98;;
13975;SDS011;7062;49.792;9.946;2023-03-05T10:15:52;2.28;;;1.15;;
13975;SDS011;7062;49.792;9.946;2023-03-05T10:21:23;3.40;;;1.00;;
13975;SDS011;7062;49.792;9.946;2023-03-05T10:32:10;3.15;;;1.38;;
13975;SDS011;7062;49.792;9.946;2023-03-05T10:34:58;2.25;;;0.95;;
13975;SDS011;7062;49.792;9.946;2023-03-05T10:40:47;2.63;;;1.10;;
13975;SDS011;7062;49.792;9.946;2023-03-05T10:44:00;3.03;;;1.40;;
13975;SDS011;7062;49.792;9.946;2023-03-05T10:46:08;3.08;;;2.28;;
13975;SDS011;7062;49.792;9.946;2023-03-05T10:48:41;5.18;;;1.55;;
13975;SDS011;7062;49.792;9.946;2023-03-05T10:51:20;2.80;;;1.35;;
13975;SDS011;7062;49.792;9.946;2023-03-05T10:56:15;3.28;;;1.40;;
13975;SDS011;7062;49.792;9.946;2023-03-05T10:58:45;3.50;;;2.08;;
13975;SDS011;7062;49.792;9.946;2023-03-05T11:08:51;4.68;;;2.20;;
13975;SDS011;7062;49.792;9.946;2023-03-05T11:11:18;5.73;;;2.07;;
13975;SDS011;7062;49.792;9.946;2023-03-05T11:13:56;5.90;;;2.47;;
13975;SDS011;7062;49.792;9.946;2023-03-05T11:16:25;8.27;;;3.22;;
13975;SDS011;7062;49.792;9.946;2023-03-05T11:19:09;3.78;;;2.38;;
13975;SDS011;7062;49.792;9.946;2023-03-05T11:21:45;3.45;;;3.08;;
13975;SDS011;7062;49.792;9.946;2023-03-05T11:24:28;4.25;;;2.88;;
13975;SDS011;7062;49.792;9.946;2023-03-05T11:26:54;6.23;;;3.97;;
13975;SDS011;7062;49.792;9.946;2023-03-05T11:29:23;6.75;;;3.03;;
13975;SDS011;7062;49.792;9.946;2023-03-05T11:31:54;7.45;;;3.35;;
13975;SDS011;7062;49.792;9.946;2023-03-05T11:34:21;6.87;;;3.17;;
13975;SDS011;7062;49.792;9.946;2023-03-05T11:39:18;5.57;;;2.75;;
13975;SDS011;7062;49.792;9.946;2023-03-05T11:44:22;5.47;;;2.75;;
13975;SDS011;7062;49.792;9.946;2023-03-05T11:46:56;5.10;;;2.63;;
13975;SDS011;7062;49.792;9.946;2023-03-05T11:49:29;4.57;;;3.10;;
13975;SDS011;7062;49.792;9.946;2023-03-05T11:52:00;3.80;;;2.63;;
13975;SDS011;7062;49.792;9.946;2023-03-05T11:54:46;5.35;;;2.50;;
13975;SDS011;7062;49.792;9.946;2023-03-05T11:57:21;5.90;;;2.65;;
13975;SDS011;7062;49.792;9.946;2023-03-05T11:59:49;3.83;;;2.40;;
13975;SDS011;7062;49.792;9.946;2023-03-05T12:02:19;7.88;;;5.05;;
13975;SDS011;7062;49.792;9.946;2023-03-05T12:04:47;3.75;;;2.45;;
13975;SDS011;7062;49.792;9.946;2023-03-05T12:07:15;5.65;;;3.47;;
13975;SDS011;7062;49.792;9.946;2023-03-05T12:09:50;5.07;;;3.08;;
13975;SDS011;7062;49.792;9.946;2023-03-05T12:17:38;4.82;;;2.83;;
13975;SDS011;7062;49.792;9.946;2023-03-05T12:20:21;4.63;;;3.15;;
13975;SDS011;7062;49.792;9.946;2023-03-05T12:22:57;6.15;;;3.72;;
13975;SDS011;7062;49.792;9.946;2023-03-05T12:25:25;5.55;;;2.95;;
13975;SDS011;7062;49.792;9.946;2023-03-05T12:27:58;7.93;;;3.22;;
13975;SDS011;7062;49.792;9.946;2023-03-05T12:30:58;5.50;;;3.13;;
13975;SDS011;7062;49.792;9.946;2023-03-05T12:33:35;3.42;;;2.47;;
13975;SDS011;7062;49.792;9.946;2023-03-05T12:38:46;5.85;;;2.85;;
13975;SDS011;7062;49.792;9.946;2023-03-05T12:44:07;5.22;;;2.72;;
13975;SDS011;7062;49.792;9.946;2023-03-05T12:51:47;5.38;;;3.00;;
13975;SDS011;7062;49.792;9.946;2023-03-05T12:54:22;5.28;;;2.80;;
13975;SDS011;7062;49.792;9.946;2023-03-05T12:56:54;6.63;;;3.33;;
13975;SDS011;7062;49.792;9.946;2023-03-05T12:59:22;4.85;;;3.08;;
13975;SDS011;7062;49.792;9.946;2023-03-05T13:02:00;5.53;;;3.13;;
13975;SDS011;7062;49.792;9.946;2023-03-05T13:04:29;6.78;;;3.92;;
13975;SDS011;7062;49.792;9.946;2023-03-05T13:06:58;6.25;;;2.80;;
13975;SDS011;7062;49.792;9.946;2023-03-05T13:09:26;7.90;;;3.20;;
13975;SDS011;7062;49.792;9.946;2023-03-05T13:11:55;4.68;;;2.78;;
13975;SDS011;7062;49.792;9.946;2023-03-05T13:14:44;5.80;;;3.25;;
13975;SDS011;7062;49.792;9.946;2023-03-05T13:17:31;5.43;;;3.00;;
13975;SDS011;7062;49.792;9.946;2023-03-05T13:20:23;5.07;;;3.03;;
13975;SDS011;7062;49.792;9.946;2023-03-05T13:25:44;3.88;;;3.03;;
13975;SDS011;7062;49.792;9.946;2023-03-05T13:28:22;5.50;;;3.33;;
13975;SDS011;7062;49.792;9.946;2023-03-05T13:30:51;5.40;;;2.87;;
13975;SDS011;7062;49.792;9.946;2023-03-05T13:33:24;6.93;;;3.85;;
13975;SDS011;7062;49.792;9.946;2023-03-05T13:35:52;6.63;;;3.35;;
13975;SDS011;7062;49.792;9.946;2023-03-05T13:38:20;5.83;;;3.77;;
13975;SDS011;7062;49.792;9.946;2023-03-05T13:43:27;7.57;;;4.15;;
13975;SDS011;7062;49.792;9.946;2023-03-05T13:45:53;6.60;;;3.90;;
13975;SDS011;7062;49.792;9.946;2023-03-05T13:48:20;4.85;;;3.97;;
13975;SDS011;7062;49.792;9.946;2023-03-05T13:50:46;6.73;;;3.90;;
13975;SDS011;7062;49.792;9.946;2023-03-05T13:53:28;5.30;;;3.72;;
13975;SDS011;7062;49.792;9.946;2023-03-05T13:55:59;8.93;;;4.60;;
13975;SDS011;7062;49.792;9.946;2023-03-05T14:01:13;6.30;;;4.38;;
13975;SDS011;7062;49.792;9.946;2023-03-05T14:03:50;7.68;;;3.42;;
13975;SDS011;7062;49.792;9.946;2023-03-05T14:06:18;9.02;;;3.50;;
13975;SDS011;7062;49.792;9.946;2023-03-05T14:08:50;6.38;;;3.75;;
13975;SDS011;7062;49.792;9.946;2023-03-05T14:11:17;7.55;;;3.78;;
13975;SDS011;7062;49.792;9.946;2023-03-05T14:13:44;5.30;;;3.55;;
13975;SDS011;7062;49.792;9.946;2023-03-05T14:16:12;7.63;;;3.05;;
13975;SDS011;7062;49.792;9.946;2023-03-05T14:18:57;5.38;;;3.28;;
13975;SDS011;7062;49.792;9.946;2023-03-05T14:21:25;6.78;;;3.53;;
13975;SDS011;7062;49.792;9.946;2023-03-05T14:24:10;4.57;;;3.28;;
13975;SDS011;7062;49.792;9.946;2023-03-05T14:26:39;4.88;;;3.55;;
13975;SDS011;7062;49.792;9.946;2023-03-05T14:29:13;6.18;;;4.07;;
13975;SDS011;7062;49.792;9.946;2023-03-05T14:31:55;5.95;;;3.92;;
13975;SDS011;7062;49.792;9.946;2023-03-05T14:34:36;7.25;;;5.03;;
13975;SDS011;7062;49.792;9.946;2023-03-05T14:37:05;7.00;;;4.32;;
13975;SDS011;7062;49.792;9.946;2023-03-05T14:45:22;6.18;;;3.95;;
13975;SDS011;7062;49.792;9.946;2023-03-05T14:47:57;10.82;;;5.63;;
13975;SDS011;7062;49.792;9.946;2023-03-05T14:50:24;8.98;;;4.78;;
13975;SDS011;7062;49.792;9.946;2023-03-05T14:52:52;6.97;;;4.28;;
13975;SDS011;7062;49.792;9.946;2023-03-05T14:55:24;7.20;;;4.30;;
13975;SDS011;7062;49.792;9.946;2023-03-05T14:57:55;7.22;;;4.50;;
13975;SDS011;7062;49.792;9.946;2023-03-05T15:00:45;6.38;;;3.50;;
13975;SDS011;7062;49.792;9.946;2023-03-05T15:03:12;7.05;;;4.63;;
13975;SDS011;7062;49.792;9.946;2023-03-05T15:05:39;7.32;;;4.10;;
13975;SDS011;7062;49.792;9.946;2023-03-05T15:08:06;5.95;;;3.65;;
13975;SDS011;7062;49.792;9.946;2023-03-05T15:10:39;9.70;;;4.68;;
13975;SDS011;7062;49.792;9.946;2023-03-05T15:13:04;6.73;;;4.00;;
13975;SDS011;7062;49.792;9.946;2023-03-05T15:15:30;5.70;;;3.50;;
13975;SDS011;7062;49.792;9.946;2023-03-05T15:17:56;5.93;;;3.63;;
13975;SDS011;7062;49.792;9.946;2023-03-05T15:20:26;7.20;;;4.27;;
13975;SDS011;7062;49.792;9.946;2023-03-05T15:22:55;7.13;;;3.78;;
13975;SDS011;7062;49.792;9.946;2023-03-05T15:25:21;6.00;;;3.50;;
13975;SDS011;7062;49.792;9.946;2023-03-05T15:27:49;7.95;;;3.47;;
13975;SDS011;7062;49.792;9.946;2023-03-05T15:32:56;4.90;;;2.92;;
13975;SDS011;7062;49.792;9.946;2023-03-05T15:35:25;6.25;;;3.45;;
13975;SDS011;7062;49.792;9.946;2023-03-05T15:37:51;5.83;;;3.47;;
13975;SDS011;7062;49.792;9.946;2023-03-05T15:40:16;6.45;;;3.70;;
13975;SDS011;7062;49.792;9.946;2023-03-05T15:42:43;5.25;;;3.05;;
13975;SDS011;7062;49.792;9.946;2023-03-05T15:45:08;5.73;;;4.10;;
13975;SDS011;7062;49.792;9.946;2023-03-05T15:47:34;5.60;;;3.37;;
13975;SDS011;7062;49.792;9.946;2023-03-05T15:50:00;5.63;;;3.33;;
13975;SDS011;7062;49.792;9.946;2023-03-05T15:52:25;6.60;;;3.57;;
13975;SDS011;7062;49.792;9.946;2023-03-05T15:54:51;7.43;;;3.57;;
13975;SDS011;7062;49.792;9.946;2023-03-05T15:57:17;6.10;;;3.80;;
13975;SDS011;7062;49.792;9.946;2023-03-05T15:59:47;5.57;;;3.15;;
13975;SDS011;7062;49.792;9.946;2023-03-05T16:02:13;6.93;;;3.53;;
13975;SDS011;7062;49.792;9.946;2023-03-05T16:04:39;6.37;;;3.70;;
13975;SDS011;7062;49.792;9.946;2023-03-05T16:07:05;6.27;;;3.47;;
13975;SDS011;7062;49.792;9.946;2023-03-05T16:09:36;4.65;;;3.00;;
13975;SDS011;7062;49.792;9.946;2023-03-05T16:12:06;7.60;;;3.78;;
13975;SDS011;7062;49.792;9.946;2023-03-05T16:14:36;5.95;;;3.75;;
13975;SDS011;7062;49.792;9.946;2023-03-05T16:17:03;5.50;;;3.53;;
13975;SDS011;7062;49.792;9.946;2023-03-05T16:19:30;4.43;;;2.47;;
13975;SDS011;7062;49.792;9.946;2023-03-05T16:21:58;6.57;;;3.20;;
13975;SDS011;7062;49.792;9.946;2023-03-05T16:24:24;5.03;;;3.07;;